Sunol, Nebraska
Current Conditions -  °F | °C
As of 5:53 PM on Wednesday 22 Oct 2014 (Local Time) from KSNY Reporting Station
Scattered Clouds Scattered Clouds  
Wind Chill: 57°   Ceiling: Unl
Heat Index: 57°   Visibility: 10mi
Dew Point: 33°   Wind: 5mph
Humidity: 40%   Direction: 80°E
Pressure: 30.08"   Gusts: NA
Location:  41.2256°N, 102.681°W
Report Text: KSNY 222353Z AUTO 08004KT 10SM SCT110 14/01 A3008 RMK AO2 RAB27E37 SLP163 P0000 60000 T01390006 10189 20139 53005
Loading
Personal Weather Stations






























Interactive Weather Map
Tropical Storm Tracking
New forecast layout! Learn more

10-Day Weather Forecast

Advertisements
Track Severe Weather on mobile